createdAt,value
2017-04-29T00:00:16.594Z,994.81
2017-04-29T00:01:16.619Z,994.77
2017-04-29T00:02:16.644Z,994.76
2017-04-29T00:03:16.671Z,994.79
2017-04-29T00:04:16.697Z,994.79
2017-04-29T00:05:16.725Z,994.8
2017-04-29T00:06:16.746Z,994.82
2017-04-29T00:07:16.775Z,994.81
2017-04-29T00:08:16.803Z,994.8
2017-04-29T00:09:16.829Z,994.81
2017-04-29T00:10:16.857Z,994.82
2017-04-29T00:11:16.878Z,994.83
2017-04-29T00:12:16.911Z,994.86
2017-04-29T00:13:16.936Z,994.82
2017-04-29T00:14:16.961Z,994.83
2017-04-29T00:15:16.993Z,994.83
2017-04-29T00:16:17.013Z,994.84
2017-04-29T00:17:17.041Z,994.84
2017-04-29T00:18:17.067Z,994.84
2017-04-29T00:19:17.094Z,994.89
2017-04-29T00:20:17.120Z,994.87
2017-04-29T00:21:17.145Z,994.86
2017-04-29T00:22:17.202Z,994.83
2017-04-29T00:23:17.198Z,994.87
2017-04-29T00:24:17.223Z,994.83
2017-04-29T00:25:17.260Z,994.82
2017-04-29T00:26:17.277Z,994.81
2017-04-29T00:27:17.307Z,994.84
2017-04-29T00:28:17.331Z,994.83
2017-04-29T00:29:17.356Z,994.86
2017-04-29T00:30:17.384Z,994.86
2017-04-29T00:31:17.405Z,994.82
2017-04-29T00:32:17.435Z,994.82
2017-04-29T00:33:17.462Z,994.84
2017-04-29T00:34:17.486Z,994.8
2017-04-29T00:35:17.516Z,994.83
2017-04-29T00:36:17.536Z,994.78
2017-04-29T00:37:17.566Z,994.83
2017-04-29T00:38:17.594Z,994.8
2017-04-29T00:39:17.619Z,994.8
2017-04-29T00:40:17.647Z,994.78
2017-04-29T00:41:17.672Z,994.82
2017-04-29T00:42:17.695Z,994.8
2017-04-29T00:43:17.722Z,994.79
2017-04-29T00:44:17.752Z,994.78
2017-04-29T00:45:17.777Z,994.78
2017-04-29T00:46:17.801Z,994.82
2017-04-29T00:47:17.827Z,994.8
2017-04-29T00:48:17.858Z,994.78
2017-04-29T00:49:17.882Z,994.8
2017-04-29T00:50:17.909Z,994.82
2017-04-29T00:51:17.937Z,994.81
2017-04-29T00:52:17.962Z,994.79
2017-04-29T00:53:17.985Z,994.83
2017-04-29T00:54:18.011Z,994.8
2017-04-29T00:55:18.039Z,994.81
2017-04-29T00:56:18.068Z,994.81
2017-04-29T00:57:18.096Z,994.82
2017-04-29T00:58:18.113Z,994.8
2017-04-29T00:59:18.142Z,994.8
2017-04-29T01:00:18.171Z,994.81
2017-04-29T01:01:18.449Z,994.84
2017-04-29T01:02:18.224Z,994.85
2017-04-29T01:03:18.248Z,994.84
2017-04-29T01:04:18.273Z,994.85
2017-04-29T01:05:18.302Z,994.88
2017-04-29T01:06:18.576Z,994.89
2017-04-29T01:07:18.356Z,994.89
2017-04-29T01:08:18.382Z,994.89
2017-04-29T01:09:18.406Z,994.89
2017-04-29T01:10:18.430Z,994.93
2017-04-29T01:11:18.710Z,994.91
2017-04-29T01:12:18.483Z,994.9
2017-04-29T01:13:18.512Z,994.92
2017-04-29T01:14:18.536Z,994.94
2017-04-29T01:15:18.563Z,994.95
2017-04-29T01:16:18.842Z,994.95
2017-04-29T01:17:18.618Z,995
2017-04-29T01:18:18.645Z,994.98
2017-04-29T01:19:18.668Z,994.96
2017-04-29T01:20:18.693Z,994.95
2017-04-29T01:21:18.721Z,994.96
2017-04-29T01:22:18.744Z,994.98
2017-04-29T01:23:18.771Z,994.96
2017-04-29T01:24:18.801Z,994.97
2017-04-29T01:25:18.826Z,994.93
2017-04-29T01:26:18.850Z,994.97
2017-04-29T01:27:18.875Z,995
2017-04-29T01:28:18.904Z,994.99
2017-04-29T01:29:18.927Z,994.95
2017-04-29T01:30:18.952Z,994.97
2017-04-29T01:31:18.981Z,994.96
2017-04-29T01:32:19.006Z,994.97
2017-04-29T01:33:19.036Z,994.99
2017-04-29T01:34:19.060Z,994.99
2017-04-29T01:35:19.081Z,994.97
2017-04-29T01:36:19.113Z,994.96
2017-04-29T01:37:19.138Z,994.94
2017-04-29T01:38:19.162Z,994.98
2017-04-29T01:39:19.192Z,994.99
2017-04-29T01:40:19.215Z,994.99
2017-04-29T01:41:19.241Z,995.03
2017-04-29T01:42:19.266Z,995.08
2017-04-29T01:43:19.295Z,995.09
2017-04-29T01:44:19.317Z,995.12
2017-04-29T01:45:19.344Z,995.1
2017-04-29T01:46:19.375Z,995.09
2017-04-29T01:47:19.397Z,995.12
2017-04-29T01:48:19.419Z,995.08
2017-04-29T01:49:19.451Z,995.1
2017-04-29T01:50:19.476Z,995.08
2017-04-29T01:51:19.500Z,995.08
2017-04-29T01:52:19.532Z,995.13
2017-04-29T01:53:19.556Z,995.1
2017-04-29T01:54:19.578Z,995.09
2017-04-29T01:55:19.608Z,995.09
2017-04-29T01:56:19.631Z,995.05
2017-04-29T01:57:19.660Z,995.07
2017-04-29T01:58:19.687Z,995.08
2017-04-29T01:59:19.711Z,995.07
2017-04-29T02:00:19.734Z,995.04
2017-04-29T02:01:19.764Z,995.07
2017-04-29T02:02:19.789Z,995.09
2017-04-29T02:03:19.814Z,995.09
2017-04-29T02:04:19.835Z,995.11
2017-04-29T02:05:19.867Z,995.09
2017-04-29T02:06:19.892Z,995.06
2017-04-29T02:07:19.917Z,995.08
2017-04-29T02:08:19.946Z,995.05
2017-04-29T02:09:19.971Z,995.09
2017-04-29T02:10:19.995Z,995.09
2017-04-29T02:11:20.023Z,995.06
2017-04-29T02:12:20.050Z,995.06
2017-04-29T02:13:20.073Z,995.02
2017-04-29T02:14:20.099Z,994.99
2017-04-29T02:15:20.126Z,995.03
2017-04-29T02:16:20.152Z,995.02
2017-04-29T02:17:20.181Z,995.01
2017-04-29T02:18:20.205Z,995.03
2017-04-29T02:19:20.229Z,995.01
2017-04-29T02:20:20.255Z,995.04
2017-04-29T02:21:20.279Z,995
2017-04-29T02:22:20.309Z,995
2017-04-29T02:23:20.329Z,994.99
2017-04-29T02:24:20.357Z,995.01
2017-04-29T02:25:20.386Z,994.93
2017-04-29T02:26:20.407Z,994.93
2017-04-29T02:27:20.436Z,994.96
2017-04-29T02:28:20.460Z,994.94
2017-04-29T02:29:20.488Z,994.9
2017-04-29T02:30:20.513Z,994.89
2017-04-29T02:31:20.542Z,994.85
2017-04-29T02:32:20.567Z,994.89
2017-04-29T02:33:20.588Z,994.88
2017-04-29T02:34:20.613Z,994.88
2017-04-29T02:35:20.647Z,994.85
2017-04-29T02:36:20.670Z,994.87
2017-04-29T02:37:20.691Z,994.84
2017-04-29T02:38:20.724Z,994.85
2017-04-29T02:39:20.780Z,994.87
2017-04-29T02:40:20.773Z,994.88
2017-04-29T02:41:20.802Z,994.9
2017-04-29T02:42:20.827Z,994.88
2017-04-29T02:43:20.852Z,994.87
2017-04-29T02:44:20.889Z,994.88
2017-04-29T02:45:20.901Z,994.91
2017-04-29T02:46:20.930Z,994.87
2017-04-29T02:47:20.954Z,994.87
2017-04-29T02:48:20.976Z,994.89
2017-04-29T02:49:21.009Z,994.88
2017-04-29T02:50:21.032Z,994.89
2017-04-29T02:51:21.057Z,994.92
2017-04-29T02:52:21.083Z,994.93
2017-04-29T02:53:21.107Z,994.93
2017-04-29T02:54:21.137Z,994.92
2017-04-29T02:55:21.161Z,994.95
2017-04-29T02:56:21.189Z,994.92
2017-04-29T02:57:21.465Z,994.92
2017-04-29T02:58:21.240Z,994.95
2017-04-29T02:59:21.260Z,994.96
2017-04-29T03:00:21.293Z,994.95
2017-04-29T03:01:21.313Z,994.91
2017-04-29T03:02:21.590Z,994.92
2017-04-29T03:03:21.366Z,994.97
2017-04-29T03:04:21.391Z,994.95
2017-04-29T03:05:21.420Z,994.99
2017-04-29T03:06:21.444Z,994.99
2017-04-29T03:07:21.722Z,994.99
2017-04-29T03:08:21.498Z,995.01
2017-04-29T03:09:21.519Z,994.99
2017-04-29T03:10:21.548Z,995.02
2017-04-29T03:11:21.577Z,995.05
2017-04-29T03:12:21.853Z,995.06
2017-04-29T03:13:21.622Z,995.1
2017-04-29T03:14:21.652Z,995.08
2017-04-29T03:15:21.676Z,995.11
2017-04-29T03:16:21.704Z,995.09
2017-04-29T03:17:21.728Z,995.12
2017-04-29T03:18:21.753Z,995.14
2017-04-29T03:19:21.781Z,995.14
2017-04-29T03:20:21.806Z,995.15
2017-04-29T03:21:21.832Z,995.15
2017-04-29T03:22:21.857Z,995.13
2017-04-29T03:23:21.881Z,995.2
2017-04-29T03:24:21.910Z,995.19
2017-04-29T03:25:21.934Z,995.19
2017-04-29T03:26:21.960Z,995.19
2017-04-29T03:27:21.985Z,995.18
2017-04-29T03:28:22.014Z,995.2
2017-04-29T03:29:22.037Z,995.19
2017-04-29T03:30:22.064Z,995.23
2017-04-29T03:31:22.087Z,995.22
2017-04-29T03:32:22.115Z,995.22
2017-04-29T03:33:22.140Z,995.21
2017-04-29T03:34:22.165Z,995.19
2017-04-29T03:35:22.193Z,995.15
2017-04-29T03:36:22.219Z,995.19
2017-04-29T03:37:22.240Z,995.17
2017-04-29T03:38:22.268Z,995.18
2017-04-29T03:39:22.293Z,995.18
2017-04-29T03:40:22.323Z,995.18
2017-04-29T03:41:22.347Z,995.13
2017-04-29T03:42:22.372Z,995.15
2017-04-29T03:43:22.393Z,995.11
2017-04-29T03:44:22.428Z,995.15
2017-04-29T03:45:22.450Z,995.11
2017-04-29T03:46:22.475Z,995.06
2017-04-29T03:47:22.500Z,995.1
2017-04-29T03:48:22.525Z,995.04
2017-04-29T03:49:22.553Z,995.07
2017-04-29T03:50:22.578Z,995.01
2017-04-29T03:51:22.602Z,994.99
2017-04-29T03:52:22.631Z,994.99
2017-04-29T03:53:22.657Z,995.02
2017-04-29T03:54:22.676Z,995
2017-04-29T03:55:22.706Z,995.04
2017-04-29T03:56:22.730Z,995
2017-04-29T03:57:22.755Z,995.04
2017-04-29T03:58:22.784Z,995
2017-04-29T03:59:22.809Z,995.05
2017-04-29T04:00:22.833Z,995.08
2017-04-29T04:01:22.861Z,995.01
2017-04-29T04:02:22.887Z,995.05
2017-04-29T04:03:22.913Z,995.05
2017-04-29T04:04:22.936Z,995.05
2017-04-29T04:05:22.961Z,995.1
2017-04-29T04:06:22.990Z,995.11
2017-04-29T04:07:23.014Z,995.09
2017-04-29T04:08:23.040Z,995.12
2017-04-29T04:09:23.065Z,995.11
2017-04-29T04:10:23.093Z,995.11
2017-04-29T04:11:23.118Z,995.13
2017-04-29T04:12:23.143Z,995.08
2017-04-29T04:13:23.167Z,995.13
2017-04-29T04:14:23.195Z,995.16
2017-04-29T04:15:23.219Z,995.18
2017-04-29T04:16:23.239Z,995.17
2017-04-29T04:17:23.270Z,995.14
2017-04-29T04:18:23.299Z,995.17
2017-04-29T04:19:23.325Z,995.17
2017-04-29T04:20:23.347Z,995.2
2017-04-29T04:21:23.380Z,995.21
2017-04-29T04:22:23.397Z,995.22
2017-04-29T04:23:23.427Z,995.2
2017-04-29T04:24:23.446Z,995.2
2017-04-29T04:25:23.475Z,995.21
2017-04-29T04:26:23.503Z,995.22
2017-04-29T04:27:23.525Z,995.25
2017-04-29T04:28:23.554Z,995.26
2017-04-29T04:29:23.579Z,995.28
2017-04-29T04:30:23.604Z,995.27
2017-04-29T04:31:23.626Z,995.23
2017-04-29T04:32:23.657Z,995.27
2017-04-29T04:33:23.682Z,995.25
2017-04-29T04:34:23.707Z,995.25
2017-04-29T04:35:23.731Z,995.27
2017-04-29T04:36:23.755Z,995.26
2017-04-29T04:37:23.786Z,995.3
2017-04-29T04:38:23.805Z,995.27
2017-04-29T04:39:23.834Z,995.31
2017-04-29T04:40:23.860Z,995.34
2017-04-29T04:41:23.886Z,995.29
2017-04-29T04:42:23.913Z,995.27
2017-04-29T04:43:23.939Z,995.35
2017-04-29T04:44:23.962Z,995.3
2017-04-29T04:45:23.991Z,995.27
2017-04-29T04:46:24.014Z,995.26
2017-04-29T04:47:24.041Z,995.25
2017-04-29T04:48:24.064Z,995.26
2017-04-29T04:49:24.094Z,995.29
2017-04-29T04:50:24.118Z,995.28
2017-04-29T04:51:24.143Z,995.32
2017-04-29T04:52:24.167Z,995.31
2017-04-29T04:53:24.196Z,995.33
2017-04-29T04:54:24.221Z,995.32
2017-04-29T04:55:24.246Z,995.33
2017-04-29T04:56:24.274Z,995.35
2017-04-29T04:57:24.296Z,995.32
2017-04-29T04:58:24.324Z,995.33
2017-04-29T04:59:24.348Z,995.37
2017-04-29T05:00:24.371Z,995.34
2017-04-29T05:01:24.398Z,995.38
2017-04-29T05:02:24.427Z,995.35
2017-04-29T05:03:24.451Z,995.36
2017-04-29T05:04:24.477Z,995.34
2017-04-29T05:05:24.500Z,995.36
2017-04-29T05:06:24.530Z,995.38
2017-04-29T05:07:24.555Z,995.37
2017-04-29T05:08:24.579Z,995.4
2017-04-29T05:09:24.604Z,995.39
2017-04-29T05:10:24.633Z,995.39
2017-04-29T05:11:24.653Z,995.38
2017-04-29T05:12:24.683Z,995.39
2017-04-29T05:13:24.708Z,995.38
2017-04-29T05:14:24.735Z,995.4
2017-04-29T05:15:24.760Z,995.35
2017-04-29T05:16:24.786Z,995.34
2017-04-29T05:17:24.812Z,995.39
2017-04-29T05:18:24.834Z,995.37
2017-04-29T05:19:24.863Z,995.41
2017-04-29T05:20:24.889Z,995.42
2017-04-29T05:21:24.918Z,995.43
2017-04-29T05:22:24.939Z,995.42
2017-04-29T05:23:24.967Z,995.39
2017-04-29T05:24:24.993Z,995.37
2017-04-29T05:25:25.021Z,995.37
2017-04-29T05:26:25.045Z,995.41
2017-04-29T05:27:25.070Z,995.4
2017-04-29T05:28:25.099Z,995.4
2017-04-29T05:29:25.125Z,995.37
2017-04-29T05:30:25.149Z,995.38
2017-04-29T05:31:25.172Z,995.39
2017-04-29T05:32:25.208Z,995.38
2017-04-29T05:33:25.228Z,995.37
2017-04-29T05:34:25.252Z,995.35
2017-04-29T05:35:25.280Z,995.38
2017-04-29T05:36:25.304Z,995.37
2017-04-29T05:37:25.328Z,995.4
2017-04-29T05:38:25.359Z,995.37
2017-04-29T05:39:25.383Z,995.36
2017-04-29T05:40:25.408Z,995.37
2017-04-29T05:41:25.436Z,995.37
2017-04-29T05:42:25.462Z,995.36
2017-04-29T05:43:25.486Z,995.41
2017-04-29T05:44:25.511Z,995.44
2017-04-29T05:45:25.540Z,995.39
2017-04-29T05:46:25.564Z,995.41
2017-04-29T05:47:25.588Z,995.41
2017-04-29T05:48:25.615Z,995.41
2017-04-29T05:49:25.642Z,995.41
2017-04-29T05:50:25.671Z,995.42
2017-04-29T05:51:25.694Z,995.43
2017-04-29T05:52:25.721Z,995.41
2017-04-29T05:53:25.751Z,995.42
2017-04-29T05:54:25.776Z,995.44
2017-04-29T05:55:25.800Z,995.47
2017-04-29T05:56:25.828Z,995.47
2017-04-29T05:57:25.852Z,995.46
2017-04-29T05:58:25.878Z,995.47
2017-04-29T05:59:25.906Z,995.52
2017-04-29T06:00:25.926Z,995.52
2017-04-29T06:01:25.957Z,995.51
2017-04-29T06:02:25.984Z,995.54
2017-04-29T06:03:26.009Z,995.5
2017-04-29T06:04:26.056Z,995.49
2017-04-29T06:05:26.062Z,995.48
2017-04-29T06:06:26.088Z,995.5
2017-04-29T06:07:26.117Z,995.48
2017-04-29T06:08:26.141Z,995.47
2017-04-29T06:09:26.165Z,995.51
2017-04-29T06:10:26.194Z,995.47
2017-04-29T06:11:26.220Z,995.5
2017-04-29T06:12:26.243Z,995.45
2017-04-29T06:13:26.273Z,995.46
2017-04-29T06:14:26.298Z,995.47
2017-04-29T06:15:26.322Z,995.44
2017-04-29T06:16:26.349Z,995.48
2017-04-29T06:17:26.375Z,995.47
2017-04-29T06:18:26.656Z,995.44
2017-04-29T06:19:26.429Z,995.46
2017-04-29T06:20:26.455Z,995.43
2017-04-29T06:21:26.484Z,995.48
2017-04-29T06:22:26.507Z,995.45
2017-04-29T06:23:26.783Z,995.49
2017-04-29T06:24:26.563Z,995.49
2017-04-29T06:25:26.586Z,995.51
2017-04-29T06:26:26.616Z,995.51
2017-04-29T06:27:26.637Z,995.54
2017-04-29T06:28:26.920Z,995.5
2017-04-29T06:29:26.693Z,995.54
2017-04-29T06:30:26.718Z,995.53
2017-04-29T06:31:26.742Z,995.54
2017-04-29T06:32:26.772Z,995.57
2017-04-29T06:33:26.794Z,995.53
2017-04-29T06:34:26.824Z,995.54
2017-04-29T06:35:26.849Z,995.53
2017-04-29T06:36:26.876Z,995.47
2017-04-29T06:37:26.902Z,995.53
2017-04-29T06:38:26.927Z,995.56
2017-04-29T06:39:26.952Z,995.51
2017-04-29T06:40:26.980Z,995.55
2017-04-29T06:41:27.009Z,995.58
2017-04-29T06:42:27.035Z,995.55
2017-04-29T06:43:27.058Z,995.55
2017-04-29T06:44:27.090Z,995.53
2017-04-29T06:45:27.113Z,995.55
2017-04-29T06:46:27.142Z,995.61
2017-04-29T06:47:27.165Z,995.6
2017-04-29T06:48:27.201Z,995.63
2017-04-29T06:49:27.220Z,995.62
2017-04-29T06:50:27.249Z,995.64
2017-04-29T06:51:27.275Z,995.64
2017-04-29T06:52:27.297Z,995.64
2017-04-29T06:53:27.329Z,995.61
2017-04-29T06:54:27.353Z,995.64
2017-04-29T06:55:27.379Z,995.62
2017-04-29T06:56:27.405Z,995.64
2017-04-29T06:57:27.430Z,995.63
2017-04-29T06:58:27.458Z,995.65
2017-04-29T06:59:27.484Z,995.7
2017-04-29T07:00:27.512Z,995.64
2017-04-29T07:01:27.537Z,995.66
2017-04-29T07:02:27.568Z,995.6
2017-04-29T07:03:27.590Z,995.62
2017-04-29T07:04:27.619Z,995.61
2017-04-29T07:05:27.645Z,995.63
2017-04-29T07:06:27.667Z,995.66
2017-04-29T07:07:27.698Z,995.71
2017-04-29T07:08:27.723Z,995.63
2017-04-29T07:09:27.756Z,995.65
2017-04-29T07:10:27.775Z,995.63
2017-04-29T07:11:27.804Z,995.66
2017-04-29T07:12:27.829Z,995.6
2017-04-29T07:13:27.859Z,995.62
2017-04-29T07:14:27.883Z,995.63
2017-04-29T07:15:27.909Z,995.61
2017-04-29T07:16:27.937Z,995.56
2017-04-29T07:17:27.960Z,995.56
2017-04-29T07:18:27.989Z,995.54
2017-04-29T07:19:28.014Z,995.56
2017-04-29T07:20:28.040Z,995.57
2017-04-29T07:21:28.067Z,995.53
2017-04-29T07:22:28.097Z,995.53
2017-04-29T07:23:28.123Z,995.48
2017-04-29T07:24:28.151Z,995.47
2017-04-29T07:25:28.175Z,995.49
2017-04-29T07:26:28.204Z,995.45
2017-04-29T07:27:28.230Z,995.43
2017-04-29T07:28:28.250Z,995.45
2017-04-29T07:29:28.534Z,995.47
2017-04-29T07:30:28.310Z,995.42
2017-04-29T07:31:28.337Z,995.48
2017-04-29T07:32:28.360Z,995.43
2017-04-29T07:33:28.389Z,995.45
2017-04-29T07:34:28.665Z,995.45
2017-04-29T07:35:28.443Z,995.46
2017-04-29T07:36:28.468Z,995.45
2017-04-29T07:37:28.496Z,995.43
2017-04-29T07:38:28.522Z,995.43
2017-04-29T07:39:28.792Z,995.43
2017-04-29T07:40:28.574Z,995.38
2017-04-29T07:41:28.607Z,995.39
2017-04-29T07:42:28.628Z,995.39
2017-04-29T07:43:28.654Z,995.38
2017-04-29T07:44:28.929Z,995.41
2017-04-29T07:45:28.707Z,995.36
2017-04-29T07:46:28.731Z,995.34
2017-04-29T07:47:28.761Z,995.38
2017-04-29T07:48:28.789Z,995.35
2017-04-29T07:49:28.814Z,995.34
2017-04-29T07:50:28.842Z,995.32
2017-04-29T07:51:28.868Z,995.35
2017-04-29T07:52:28.895Z,995.35
2017-04-29T07:53:28.921Z,995.31
2017-04-29T07:54:28.946Z,995.29
2017-04-29T07:55:28.973Z,995.31
2017-04-29T07:56:28.998Z,995.27
2017-04-29T07:57:29.028Z,995.31
2017-04-29T07:58:29.048Z,995.29
2017-04-29T07:59:29.081Z,995.29
2017-04-29T08:00:29.106Z,995.29
2017-04-29T08:01:29.135Z,995.28
2017-04-29T08:02:29.155Z,995.27
2017-04-29T08:03:29.187Z,995.29
2017-04-29T08:04:29.214Z,995.27
2017-04-29T08:05:29.237Z,995.31
2017-04-29T08:06:29.266Z,995.33
2017-04-29T08:07:29.290Z,995.28
2017-04-29T08:08:29.319Z,995.33
2017-04-29T08:09:29.344Z,995.33
2017-04-29T08:10:29.372Z,995.33
2017-04-29T08:11:29.397Z,995.35
2017-04-29T08:12:29.427Z,995.33
2017-04-29T08:13:29.451Z,995.34
2017-04-29T08:14:29.479Z,995.33
2017-04-29T08:15:29.505Z,995.34
2017-04-29T08:16:29.532Z,995.34
2017-04-29T08:17:29.559Z,995.37
2017-04-29T08:18:29.586Z,995.41
2017-04-29T08:19:29.612Z,995.42
2017-04-29T08:20:29.636Z,995.4
2017-04-29T08:21:29.667Z,995.39
2017-04-29T08:22:29.695Z,995.37
2017-04-29T08:23:29.715Z,995.36
2017-04-29T08:24:29.744Z,995.35
2017-04-29T08:25:29.773Z,995.34
2017-04-29T08:26:29.798Z,995.37
2017-04-29T08:27:29.825Z,995.34
2017-04-29T08:28:29.851Z,995.35
2017-04-29T08:29:29.880Z,995.31
2017-04-29T08:30:29.904Z,995.31
2017-04-29T08:31:29.934Z,995.28
2017-04-29T08:32:29.957Z,995.3
2017-04-29T08:33:29.988Z,995.31
2017-04-29T08:34:30.011Z,995.29
2017-04-29T08:35:30.040Z,995.27
2017-04-29T08:36:30.065Z,995.24
2017-04-29T08:37:30.094Z,995.23
2017-04-29T08:38:30.120Z,995.26
2017-04-29T08:39:30.147Z,995.21
2017-04-29T08:40:30.171Z,995.23
2017-04-29T08:41:30.195Z,995.23
2017-04-29T08:42:30.224Z,995.27
2017-04-29T08:43:30.256Z,995.24
2017-04-29T08:44:30.275Z,995.22
2017-04-29T08:45:30.303Z,995.21
2017-04-29T08:46:30.332Z,995.24
2017-04-29T08:47:30.360Z,995.24
2017-04-29T08:48:30.382Z,995.18
2017-04-29T08:49:30.410Z,995.22
2017-04-29T08:50:30.439Z,995.18
2017-04-29T08:51:30.469Z,995.22
2017-04-29T08:52:30.493Z,995.21
2017-04-29T08:53:30.522Z,995.22
2017-04-29T08:54:30.546Z,995.2
2017-04-29T08:55:30.575Z,995.22
2017-04-29T08:56:30.600Z,995.22
2017-04-29T08:57:30.629Z,995.19
2017-04-29T08:58:30.657Z,995.21
2017-04-29T08:59:30.683Z,995.22
2017-04-29T09:00:30.707Z,995.24
2017-04-29T09:01:30.736Z,995.26
2017-04-29T09:02:30.765Z,995.23
2017-04-29T09:03:30.789Z,995.28
2017-04-29T09:04:30.818Z,995.3
2017-04-29T09:05:30.838Z,995.26
2017-04-29T09:06:30.870Z,995.28
2017-04-29T09:07:30.896Z,995.28
2017-04-29T09:08:30.925Z,995.25
2017-04-29T09:09:30.949Z,995.21
2017-04-29T09:10:30.978Z,995.22
2017-04-29T09:11:31.003Z,995.24
2017-04-29T09:12:31.031Z,995.21
2017-04-29T09:13:31.057Z,995.27
2017-04-29T09:14:31.084Z,995.21
2017-04-29T09:15:31.362Z,995.19
2017-04-29T09:16:31.140Z,995.18
2017-04-29T09:17:31.171Z,995.16
2017-04-29T09:18:31.192Z,995.21
2017-04-29T09:19:31.221Z,995.18
2017-04-29T09:20:31.490Z,995.2
2017-04-29T09:21:31.272Z,995.18
2017-04-29T09:22:31.299Z,995.17
2017-04-29T09:23:31.329Z,995.18
2017-04-29T09:24:31.353Z,995.18
2017-04-29T09:25:31.633Z,995.18
2017-04-29T09:26:31.406Z,995.19
2017-04-29T09:27:31.436Z,995.2
2017-04-29T09:28:31.460Z,995.2
2017-04-29T09:29:31.489Z,995.26
2017-04-29T09:30:31.801Z,995.24
2017-04-29T09:31:31.539Z,995.21
2017-04-29T09:32:31.567Z,995.25
2017-04-29T09:33:31.596Z,995.24
2017-04-29T09:34:31.621Z,995.23
2017-04-29T09:35:31.900Z,995.22
2017-04-29T09:36:31.674Z,995.22
2017-04-29T09:37:31.703Z,995.28
2017-04-29T09:38:31.731Z,995.25
2017-04-29T09:39:31.757Z,995.25
2017-04-29T09:40:31.782Z,995.27
2017-04-29T09:41:31.810Z,995.23
2017-04-29T09:42:31.838Z,995.23
2017-04-29T09:43:31.862Z,995.23
2017-04-29T09:44:31.891Z,995.25
2017-04-29T09:45:31.916Z,995.22
2017-04-29T09:46:31.946Z,995.17
2017-04-29T09:47:31.970Z,995.2
2017-04-29T09:48:31.999Z,995.23
2017-04-29T09:49:32.024Z,995.21
2017-04-29T09:50:32.052Z,995.23
2017-04-29T09:51:32.077Z,995.23
2017-04-29T09:52:32.106Z,995.23
2017-04-29T09:53:32.135Z,995.2
2017-04-29T09:54:32.159Z,995.21
2017-04-29T09:55:32.185Z,995.21
2017-04-29T09:56:32.214Z,995.17
2017-04-29T09:57:32.234Z,995.16
2017-04-29T09:58:32.266Z,995.16
2017-04-29T09:59:32.296Z,995.17
2017-04-29T10:00:32.320Z,995.17
2017-04-29T10:01:32.348Z,995.11
2017-04-29T10:02:32.374Z,995.14
2017-04-29T10:03:32.405Z,995.15
2017-04-29T10:04:32.431Z,995.18
2017-04-29T10:05:32.456Z,995.18
2017-04-29T10:06:32.485Z,995.13
2017-04-29T10:07:32.505Z,995.15
2017-04-29T10:08:32.538Z,995.1
2017-04-29T10:09:32.562Z,995.13
2017-04-29T10:10:32.592Z,995.08
2017-04-29T10:11:32.617Z,995.03
2017-04-29T10:12:32.645Z,995.01
2017-04-29T10:13:32.674Z,995.03
2017-04-29T10:14:32.700Z,994.98
2017-04-29T10:15:32.727Z,994.99
2017-04-29T10:16:32.755Z,995.01
2017-04-29T10:17:32.781Z,995.03
2017-04-29T10:18:32.813Z,994.99
2017-04-29T10:19:32.835Z,995.02
2017-04-29T10:20:32.864Z,995
2017-04-29T10:21:32.895Z,995.01
2017-04-29T10:22:32.915Z,994.96
2017-04-29T10:23:32.943Z,994.99
2017-04-29T10:24:32.970Z,994.98
2017-04-29T10:25:32.999Z,994.97
2017-04-29T10:26:33.028Z,994.97
2017-04-29T10:27:33.052Z,995
2017-04-29T10:28:33.081Z,994.98
2017-04-29T10:29:33.105Z,994.98
2017-04-29T10:30:33.146Z,995.04
2017-04-29T10:31:33.163Z,995
2017-04-29T10:32:33.189Z,994.97
2017-04-29T10:33:33.218Z,995
2017-04-29T10:34:33.250Z,994.94
2017-04-29T10:35:33.270Z,994.95
2017-04-29T10:36:33.300Z,994.94
2017-04-29T10:37:33.330Z,994.9
2017-04-29T10:38:33.349Z,994.91
2017-04-29T10:39:33.381Z,994.9
2017-04-29T10:40:33.411Z,994.88
2017-04-29T10:41:33.690Z,994.85
2017-04-29T10:42:33.464Z,994.82
2017-04-29T10:43:33.493Z,994.82
2017-04-29T10:44:33.517Z,994.84
2017-04-29T10:45:33.546Z,994.82
2017-04-29T10:46:33.822Z,994.83
2017-04-29T10:47:33.599Z,994.88
2017-04-29T10:48:33.657Z,994.84
2017-04-29T10:49:33.657Z,994.85
2017-04-29T10:50:33.682Z,994.79
2017-04-29T10:51:33.963Z,994.76
2017-04-29T10:52:33.738Z,994.76
2017-04-29T10:53:33.764Z,994.76
2017-04-29T10:54:33.793Z,994.75
2017-04-29T10:55:33.821Z,994.75
2017-04-29T10:56:33.847Z,994.73
2017-04-29T10:57:33.876Z,994.75
2017-04-29T10:58:33.901Z,994.73
2017-04-29T10:59:33.927Z,994.75
2017-04-29T11:00:33.956Z,994.72
2017-04-29T11:01:33.979Z,994.74
2017-04-29T11:02:34.012Z,994.71
2017-04-29T11:03:34.041Z,994.73
2017-04-29T11:04:34.064Z,994.72
2017-04-29T11:05:34.092Z,994.72
2017-04-29T11:06:34.122Z,994.72
2017-04-29T11:07:34.145Z,994.7
2017-04-29T11:08:34.171Z,994.79
2017-04-29T11:09:34.200Z,994.78
2017-04-29T11:10:34.229Z,994.76
2017-04-29T11:11:34.253Z,994.73
2017-04-29T11:12:34.282Z,994.74
2017-04-29T11:13:34.311Z,994.74
2017-04-29T11:14:34.335Z,994.76
2017-04-29T11:15:34.364Z,994.76
2017-04-29T11:16:34.429Z,994.76
2017-04-29T11:17:34.418Z,994.74
2017-04-29T11:18:34.446Z,994.72
2017-04-29T11:19:34.470Z,994.74
2017-04-29T11:20:34.499Z,994.73
2017-04-29T11:21:34.530Z,994.71
2017-04-29T11:22:34.553Z,994.68
2017-04-29T11:23:34.583Z,994.69
2017-04-29T11:24:34.606Z,994.67
2017-04-29T11:25:34.635Z,994.7
2017-04-29T11:26:34.664Z,994.71
2017-04-29T11:27:34.690Z,994.67
2017-04-29T11:28:34.715Z,994.71
2017-04-29T11:29:34.746Z,994.68
2017-04-29T11:30:34.771Z,994.65
2017-04-29T11:31:34.800Z,994.71
2017-04-29T11:32:34.826Z,994.76
2017-04-29T11:33:34.855Z,994.62
2017-04-29T11:34:34.875Z,994.63
2017-04-29T11:35:34.907Z,994.61
2017-04-29T11:36:34.937Z,994.64
2017-04-29T11:37:34.961Z,994.62
2017-04-29T11:38:34.990Z,994.58
2017-04-29T11:39:35.019Z,994.55
2017-04-29T11:40:35.043Z,994.56
2017-04-29T11:41:35.072Z,994.57
2017-04-29T11:42:35.101Z,994.55
2017-04-29T11:43:35.127Z,994.53
2017-04-29T11:44:35.154Z,994.58
2017-04-29T11:45:35.178Z,994.57
2017-04-29T11:46:35.207Z,994.52
2017-04-29T11:47:35.230Z,994.52
2017-04-29T11:48:35.257Z,994.5
2017-04-29T11:49:35.290Z,994.42
2017-04-29T11:50:35.319Z,994.43
2017-04-29T11:51:35.343Z,994.48
2017-04-29T11:52:35.372Z,994.45
2017-04-29T11:53:35.402Z,994.45
2017-04-29T11:54:35.422Z,994.48
2017-04-29T11:55:35.454Z,994.48
2017-04-29T11:56:35.479Z,994.47
2017-04-29T11:57:35.507Z,994.49
2017-04-29T11:58:35.536Z,994.58
2017-04-29T11:59:35.561Z,994.74
2017-04-29T12:00:35.590Z,994.76
2017-04-29T12:01:35.618Z,994.66
2017-04-29T12:02:35.644Z,994.62
2017-04-29T12:03:35.673Z,994.53
2017-04-29T12:04:35.697Z,994.68
2017-04-29T12:05:35.730Z,994.5
2017-04-29T12:06:35.754Z,994.46
2017-04-29T12:07:35.784Z,994.47
2017-04-29T12:08:35.825Z,994.54
2017-04-29T12:09:35.837Z,994.55
2017-04-29T12:10:35.871Z,994.56
2017-04-29T12:11:35.898Z,994.57
2017-04-29T12:12:35.928Z,994.61
2017-04-29T12:13:35.948Z,994.6
2017-04-29T12:14:35.981Z,994.53
2017-04-29T12:15:36.009Z,994.57
2017-04-29T12:16:36.038Z,994.72
2017-04-29T12:17:36.065Z,994.55
2017-04-29T12:18:36.095Z,994.59
2017-04-29T12:19:36.125Z,994.69
2017-04-29T12:20:36.148Z,994.69
2017-04-29T12:21:36.182Z,994.74
2017-04-29T12:22:36.462Z,994.8
2017-04-29T12:23:36.238Z,994.78
2017-04-29T12:24:36.268Z,994.8
2017-04-29T12:25:36.296Z,994.8
2017-04-29T12:26:36.321Z,994.47
2017-04-29T12:27:36.606Z,994.8
2017-04-29T12:28:36.383Z,994.89
2017-04-29T12:29:36.412Z,994.91
2017-04-29T12:30:36.443Z,994.92
2017-04-29T12:31:36.472Z,994.52